sensor_id;sensor_type;location;lat;lon;timestamp;temperature;humidity
21246;DHT22;10781;50.928;4.440;2023-06-10T00:00:23;23.90;92.40
21246;DHT22;10781;50.928;4.440;2023-06-10T00:02:49;23.70;92.90
21246;DHT22;10781;50.928;4.440;2023-06-10T00:05:15;23.80;93.00
21246;DHT22;10781;50.928;4.440;2023-06-10T00:07:41;23.70;93.30
21246;DHT22;10781;50.928;4.440;2023-06-10T00:10:07;23.70;93.80
21246;DHT22;10781;50.928;4.440;2023-06-10T00:12:34;23.40;94.30
21246;DHT22;10781;50.928;4.440;2023-06-10T00:15:23;23.30;94.90
21246;DHT22;10781;50.928;4.440;2023-06-10T00:17:49;23.30;95.40
21246;DHT22;10781;50.928;4.440;2023-06-10T00:20:18;23.30;95.80
21246;DHT22;10781;50.928;4.440;2023-06-10T00:22:44;23.20;96.40
21246;DHT22;10781;50.928;4.440;2023-06-10T00:25:11;23.30;96.70
21246;DHT22;10781;50.928;4.440;2023-06-10T00:27:36;23.30;96.90
21246;DHT22;10781;50.928;4.440;2023-06-10T00:30:03;23.30;97.40
21246;DHT22;10781;50.928;4.440;2023-06-10T00:32:35;23.40;97.70
21246;DHT22;10781;50.928;4.440;2023-06-10T00:35:01;23.40;97.70
21246;DHT22;10781;50.928;4.440;2023-06-10T00:37:27;23.30;98.10
21246;DHT22;10781;50.928;4.440;2023-06-10T00:39:54;23.30;98.60
21246;DHT22;10781;50.928;4.440;2023-06-10T00:42:19;23.20;99.20
21246;DHT22;10781;50.928;4.440;2023-06-10T00:44:45;23.10;99.80
21246;DHT22;10781;50.928;4.440;2023-06-10T00:47:11;23.10;99.90
21246;DHT22;10781;50.928;4.440;2023-06-10T00:49:36;23.20;99.90
21246;DHT22;10781;50.928;4.440;2023-06-10T00:52:03;23.30;99.90
21246;DHT22;10781;50.928;4.440;2023-06-10T00:54:30;23.30;99.90
21246;DHT22;10781;50.928;4.440;2023-06-10T00:56:56;23.30;99.90
21246;DHT22;10781;50.928;4.440;2023-06-10T00:59:23;23.20;99.90
21246;DHT22;10781;50.928;4.440;2023-06-10T01:01:50;23.10;99.90
21246;DHT22;10781;50.928;4.440;2023-06-10T01:04:17;23.00;99.90
21246;DHT22;10781;50.928;4.440;2023-06-10T01:09:32;22.90;99.90
21246;DHT22;10781;50.928;4.440;2023-06-10T01:12:05;23.00;99.90
21246;DHT22;10781;50.928;4.440;2023-06-10T01:14:35;22.90;99.90
21246;DHT22;10781;50.928;4.440;2023-06-10T01:17:02;23.00;99.90
21246;DHT22;10781;50.928;4.440;2023-06-10T01:19:28;22.90;99.90
21246;DHT22;10781;50.928;4.440;2023-06-10T01:21:57;23.00;99.90
21246;DHT22;10781;50.928;4.440;2023-06-10T01:24:26;22.90;99.90
21246;DHT22;10781;50.928;4.440;2023-06-10T01:26:53;22.90;99.90
21246;DHT22;10781;50.928;4.440;2023-06-10T01:34:26;22.80;99.90
21246;DHT22;10781;50.928;4.440;2023-06-10T01:36:55;22.60;99.90
21246;DHT22;10781;50.928;4.440;2023-06-10T01:39:24;22.50;99.90
21246;DHT22;10781;50.928;4.440;2023-06-10T01:41:52;22.50;99.90
21246;DHT22;10781;50.928;4.440;2023-06-10T01:44:22;22.40;99.90
21246;DHT22;10781;50.928;4.440;2023-06-10T01:46:48;22.50;99.90
21246;DHT22;10781;50.928;4.440;2023-06-10T01:49:15;22.50;99.90
21246;DHT22;10781;50.928;4.440;2023-06-10T01:51:40;22.50;99.90
21246;DHT22;10781;50.928;4.440;2023-06-10T01:54:06;22.60;99.90
21246;DHT22;10781;50.928;4.440;2023-06-10T01:56:32;22.60;99.90
21246;DHT22;10781;50.928;4.440;2023-06-10T01:58:58;22.50;99.90
21246;DHT22;10781;50.928;4.440;2023-06-10T02:01:26;22.40;99.90
21246;DHT22;10781;50.928;4.440;2023-06-10T02:03:52;22.30;99.90
21246;DHT22;10781;50.928;4.440;2023-06-10T02:06:18;22.40;99.90
21246;DHT22;10781;50.928;4.440;2023-06-10T02:08:44;22.40;99.90
21246;DHT22;10781;50.928;4.440;2023-06-10T02:11:09;22.30;99.90
21246;DHT22;10781;50.928;4.440;2023-06-10T02:13:35;22.40;99.90
21246;DHT22;10781;50.928;4.440;2023-06-10T02:16:01;22.30;99.90
21246;DHT22;10781;50.928;4.440;2023-06-10T02:18:27;22.30;99.90
21246;DHT22;10781;50.928;4.440;2023-06-10T02:20:53;22.20;99.90
21246;DHT22;10781;50.928;4.440;2023-06-10T02:23:19;22.10;99.90
21246;DHT22;10781;50.928;4.440;2023-06-10T02:25:45;22.10;99.90
21246;DHT22;10781;50.928;4.440;2023-06-10T02:28:13;22.10;99.90
21246;DHT22;10781;50.928;4.440;2023-06-10T02:30:40;22.00;99.90
21246;DHT22;10781;50.928;4.440;2023-06-10T02:33:06;22.00;99.90
21246;DHT22;10781;50.928;4.440;2023-06-10T02:35:35;22.00;99.90
21246;DHT22;10781;50.928;4.440;2023-06-10T02:38:02;22.00;99.90
21246;DHT22;10781;50.928;4.440;2023-06-10T02:40:27;22.00;99.90
21246;DHT22;10781;50.928;4.440;2023-06-10T02:42:56;21.90;99.90
21246;DHT22;10781;50.928;4.440;2023-06-10T02:45:22;21.90;99.90
21246;DHT22;10781;50.928;4.440;2023-06-10T02:47:48;21.90;99.90
21246;DHT22;10781;50.928;4.440;2023-06-10T02:50:13;21.90;99.90
21246;DHT22;10781;50.928;4.440;2023-06-10T02:52:39;21.80;99.90
21246;DHT22;10781;50.928;4.440;2023-06-10T02:55:05;21.80;99.90
21246;DHT22;10781;50.928;4.440;2023-06-10T02:57:31;21.80;99.90
21246;DHT22;10781;50.928;4.440;2023-06-10T02:59:57;21.80;99.90
21246;DHT22;10781;50.928;4.440;2023-06-10T03:02:24;21.80;99.90
21246;DHT22;10781;50.928;4.440;2023-06-10T03:04:54;21.70;99.90
21246;DHT22;10781;50.928;4.440;2023-06-10T03:07:20;21.70;99.90
21246;DHT22;10781;50.928;4.440;2023-06-10T03:09:46;21.60;99.90
21246;DHT22;10781;50.928;4.440;2023-06-10T03:12:12;21.60;99.90
21246;DHT22;10781;50.928;4.440;2023-06-10T03:14:38;21.40;99.90
21246;DHT22;10781;50.928;4.440;2023-06-10T03:17:04;21.40;99.90
21246;DHT22;10781;50.928;4.440;2023-06-10T03:19:30;21.30;99.90
21246;DHT22;10781;50.928;4.440;2023-06-10T03:22:14;21.40;99.90
21246;DHT22;10781;50.928;4.440;2023-06-10T03:24:40;21.40;99.90
21246;DHT22;10781;50.928;4.440;2023-06-10T03:27:10;21.40;99.90
21246;DHT22;10781;50.928;4.440;2023-06-10T03:29:37;21.30;99.90
21246;DHT22;10781;50.928;4.440;2023-06-10T03:32:03;21.10;99.90
21246;DHT22;10781;50.928;4.440;2023-06-10T03:34:29;21.20;99.90
21246;DHT22;10781;50.928;4.440;2023-06-10T03:36:56;21.10;99.90
21246;DHT22;10781;50.928;4.440;2023-06-10T03:39:22;21.10;99.90
21246;DHT22;10781;50.928;4.440;2023-06-10T03:41:49;21.10;99.90
21246;DHT22;10781;50.928;4.440;2023-06-10T03:44:15;21.00;99.90
21246;DHT22;10781;50.928;4.440;2023-06-10T03:46:41;20.90;99.90
21246;DHT22;10781;50.928;4.440;2023-06-10T03:49:06;20.90;99.90
21246;DHT22;10781;50.928;4.440;2023-06-10T03:51:32;20.90;99.90
21246;DHT22;10781;50.928;4.440;2023-06-10T03:53:58;20.90;99.90
21246;DHT22;10781;50.928;4.440;2023-06-10T03:56:24;20.80;99.90
21246;DHT22;10781;50.928;4.440;2023-06-10T03:58:51;20.70;99.90
21246;DHT22;10781;50.928;4.440;2023-06-10T04:01:16;20.80;99.90
21246;DHT22;10781;50.928;4.440;2023-06-10T04:03:43;20.80;99.90
21246;DHT22;10781;50.928;4.440;2023-06-10T04:06:09;20.90;99.90
21246;DHT22;10781;50.928;4.440;2023-06-10T04:08:35;20.70;99.90
21246;DHT22;10781;50.928;4.440;2023-06-10T04:11:01;20.70;99.90
21246;DHT22;10781;50.928;4.440;2023-06-10T04:13:27;20.80;99.90
21246;DHT22;10781;50.928;4.440;2023-06-10T04:15:53;20.80;99.90
21246;DHT22;10781;50.928;4.440;2023-06-10T04:18:20;20.80;99.90
21246;DHT22;10781;50.928;4.440;2023-06-10T04:20:47;20.90;99.90
21246;DHT22;10781;50.928;4.440;2023-06-10T04:23:13;21.00;99.90
21246;DHT22;10781;50.928;4.440;2023-06-10T04:25:38;20.90;99.90
21246;DHT22;10781;50.928;4.440;2023-06-10T04:28:04;21.00;99.90
21246;DHT22;10781;50.928;4.440;2023-06-10T04:30:30;21.00;99.90
21246;DHT22;10781;50.928;4.440;2023-06-10T04:32:57;21.10;99.90
21246;DHT22;10781;50.928;4.440;2023-06-10T04:35:22;21.10;99.90
21246;DHT22;10781;50.928;4.440;2023-06-10T04:37:48;21.20;99.90
21246;DHT22;10781;50.928;4.440;2023-06-10T04:40:14;21.30;99.90
21246;DHT22;10781;50.928;4.440;2023-06-10T04:42:41;21.30;99.90
21246;DHT22;10781;50.928;4.440;2023-06-10T04:45:07;21.30;99.90
21246;DHT22;10781;50.928;4.440;2023-06-10T04:47:33;21.40;99.90
21246;DHT22;10781;50.928;4.440;2023-06-10T04:50:03;21.40;99.90
21246;DHT22;10781;50.928;4.440;2023-06-10T04:52:29;21.50;99.90
21246;DHT22;10781;50.928;4.440;2023-06-10T04:54:55;21.40;99.90
21246;DHT22;10781;50.928;4.440;2023-06-10T04:57:21;21.30;99.90
21246;DHT22;10781;50.928;4.440;2023-06-10T04:59:47;21.30;99.90
21246;DHT22;10781;50.928;4.440;2023-06-10T05:02:13;21.10;99.90
21246;DHT22;10781;50.928;4.440;2023-06-10T05:04:38;21.10;99.90
21246;DHT22;10781;50.928;4.440;2023-06-10T05:07:04;21.10;99.90
21246;DHT22;10781;50.928;4.440;2023-06-10T05:09:30;21.10;99.90
21246;DHT22;10781;50.928;4.440;2023-06-10T05:11:56;21.00;99.90
21246;DHT22;10781;50.928;4.440;2023-06-10T05:14:22;20.90;99.90
21246;DHT22;10781;50.928;4.440;2023-06-10T05:16:48;20.90;99.90
21246;DHT22;10781;50.928;4.440;2023-06-10T05:19:14;20.90;99.90
21246;DHT22;10781;50.928;4.440;2023-06-10T05:21:42;21.00;99.90
21246;DHT22;10781;50.928;4.440;2023-06-10T05:24:07;21.20;99.90
21246;DHT22;10781;50.928;4.440;2023-06-10T05:26:33;21.20;99.90
21246;DHT22;10781;50.928;4.440;2023-06-10T05:29:03;21.30;99.90
21246;DHT22;10781;50.928;4.440;2023-06-10T05:31:28;21.50;99.90
21246;DHT22;10781;50.928;4.440;2023-06-10T05:33:54;21.40;99.90
21246;DHT22;10781;50.928;4.440;2023-06-10T05:36:20;21.60;99.90
21246;DHT22;10781;50.928;4.440;2023-06-10T05:38:46;21.60;99.90
21246;DHT22;10781;50.928;4.440;2023-06-10T05:41:12;21.60;99.90
21246;DHT22;10781;50.928;4.440;2023-06-10T05:43:38;21.70;99.90
21246;DHT22;10781;50.928;4.440;2023-06-10T05:46:03;21.80;99.90
21246;DHT22;10781;50.928;4.440;2023-06-10T05:48:29;22.00;99.90
21246;DHT22;10781;50.928;4.440;2023-06-10T05:50:55;22.10;99.90
21246;DHT22;10781;50.928;4.440;2023-06-10T05:53:20;22.10;99.90
21246;DHT22;10781;50.928;4.440;2023-06-10T05:55:46;22.10;99.90
21246;DHT22;10781;50.928;4.440;2023-06-10T05:58:13;21.90;99.90
21246;DHT22;10781;50.928;4.440;2023-06-10T06:00:39;21.90;99.90
21246;DHT22;10781;50.928;4.440;2023-06-10T06:03:08;22.10;99.90
21246;DHT22;10781;50.928;4.440;2023-06-10T06:05:34;22.30;99.90
21246;DHT22;10781;50.928;4.440;2023-06-10T06:08:07;22.10;99.90
21246;DHT22;10781;50.928;4.440;2023-06-10T06:10:33;22.30;99.90
21246;DHT22;10781;50.928;4.440;2023-06-10T06:13:00;22.40;99.90
21246;DHT22;10781;50.928;4.440;2023-06-10T06:15:25;22.60;99.90
21246;DHT22;10781;50.928;4.440;2023-06-10T06:17:51;22.50;99.90
21246;DHT22;10781;50.928;4.440;2023-06-10T06:20:20;22.70;99.90
21246;DHT22;10781;50.928;4.440;2023-06-10T06:22:46;22.60;99.90
21246;DHT22;10781;50.928;4.440;2023-06-10T06:25:11;22.40;99.90
21246;DHT22;10781;50.928;4.440;2023-06-10T06:27:37;22.40;99.90
21246;DHT22;10781;50.928;4.440;2023-06-10T06:30:03;22.60;99.90
21246;DHT22;10781;50.928;4.440;2023-06-10T06:32:29;22.80;99.90
21246;DHT22;10781;50.928;4.440;2023-06-10T06:34:55;23.10;99.90
21246;DHT22;10781;50.928;4.440;2023-06-10T06:37:24;23.00;99.90
21246;DHT22;10781;50.928;4.440;2023-06-10T06:39:51;23.10;99.90
21246;DHT22;10781;50.928;4.440;2023-06-10T06:42:16;23.20;99.90
21246;DHT22;10781;50.928;4.440;2023-06-10T06:44:42;23.40;99.90
21246;DHT22;10781;50.928;4.440;2023-06-10T06:47:08;23.70;99.90
21246;DHT22;10781;50.928;4.440;2023-06-10T06:49:34;23.80;99.90
21246;DHT22;10781;50.928;4.440;2023-06-10T06:52:00;24.00;99.90
21246;DHT22;10781;50.928;4.440;2023-06-10T06:54:25;24.00;99.90
21246;DHT22;10781;50.928;4.440;2023-06-10T06:56:51;24.00;99.90
21246;DHT22;10781;50.928;4.440;2023-06-10T06:59:17;24.20;99.90
21246;DHT22;10781;50.928;4.440;2023-06-10T07:01:45;24.20;99.90
21246;DHT22;10781;50.928;4.440;2023-06-10T07:04:10;24.30;99.90
21246;DHT22;10781;50.928;4.440;2023-06-10T07:06:36;24.40;99.90
21246;DHT22;10781;50.928;4.440;2023-06-10T07:09:03;24.20;99.90
21246;DHT22;10781;50.928;4.440;2023-06-10T07:11:29;24.40;99.90
21246;DHT22;10781;50.928;4.440;2023-06-10T07:13:55;24.60;99.90
21246;DHT22;10781;50.928;4.440;2023-06-10T07:16:21;24.70;99.90
21246;DHT22;10781;50.928;4.440;2023-06-10T07:18:47;24.90;99.90
21246;DHT22;10781;50.928;4.440;2023-06-10T07:21:12;25.00;99.90
21246;DHT22;10781;50.928;4.440;2023-06-10T07:23:41;25.10;99.90
21246;DHT22;10781;50.928;4.440;2023-06-10T07:26:08;25.30;99.90
21246;DHT22;10781;50.928;4.440;2023-06-10T07:28:36;25.70;99.90
21246;DHT22;10781;50.928;4.440;2023-06-10T07:31:02;26.40;99.90
21246;DHT22;10781;50.928;4.440;2023-06-10T07:33:28;27.50;99.90
21246;DHT22;10781;50.928;4.440;2023-06-10T07:35:54;29.30;99.90
21246;DHT22;10781;50.928;4.440;2023-06-10T07:38:19;31.10;99.90
21246;DHT22;10781;50.928;4.440;2023-06-10T07:40:45;31.60;99.90
21246;DHT22;10781;50.928;4.440;2023-06-10T07:43:11;32.00;98.70
21246;DHT22;10781;50.928;4.440;2023-06-10T07:45:39;32.40;97.10
21246;DHT22;10781;50.928;4.440;2023-06-10T07:48:05;33.60;95.70
21246;DHT22;10781;50.928;4.440;2023-06-10T07:50:30;34.20;91.60
21246;DHT22;10781;50.928;4.440;2023-06-10T07:52:56;33.90;90.40
21246;DHT22;10781;50.928;4.440;2023-06-10T07:55:22;34.50;88.10
21246;DHT22;10781;50.928;4.440;2023-06-10T07:57:47;35.30;85.00
21246;DHT22;10781;50.928;4.440;2023-06-10T08:00:13;35.30;81.00
21246;DHT22;10781;50.928;4.440;2023-06-10T08:02:39;34.80;81.00
21246;DHT22;10781;50.928;4.440;2023-06-10T08:05:05;35.40;77.90
21246;DHT22;10781;50.928;4.440;2023-06-10T08:07:31;35.30;78.20
21246;DHT22;10781;50.928;4.440;2023-06-10T08:09:57;34.50;78.80
21246;DHT22;10781;50.928;4.440;2023-06-10T08:12:23;35.30;78.90
21246;DHT22;10781;50.928;4.440;2023-06-10T08:14:48;36.00;75.40
21246;DHT22;10781;50.928;4.440;2023-06-10T08:17:14;36.30;73.10
21246;DHT22;10781;50.928;4.440;2023-06-10T08:19:40;36.20;73.20
21246;DHT22;10781;50.928;4.440;2023-06-10T08:22:05;36.30;73.30
21246;DHT22;10781;50.928;4.440;2023-06-10T08:24:31;36.40;71.20
21246;DHT22;10781;50.928;4.440;2023-06-10T08:26:57;38.10;68.80
21246;DHT22;10781;50.928;4.440;2023-06-10T08:29:23;36.30;68.80
21246;DHT22;10781;50.928;4.440;2023-06-10T08:31:49;37.90;66.20
21246;DHT22;10781;50.928;4.440;2023-06-10T08:34:15;36.50;66.60
21246;DHT22;10781;50.928;4.440;2023-06-10T08:36:40;36.90;67.90
21246;DHT22;10781;50.928;4.440;2023-06-10T08:39:06;37.80;65.10
21246;DHT22;10781;50.928;4.440;2023-06-10T08:41:35;37.50;64.60
21246;DHT22;10781;50.928;4.440;2023-06-10T08:44:13;38.70;62.10
21246;DHT22;10781;50.928;4.440;2023-06-10T08:46:41;39.60;60.70
21246;DHT22;10781;50.928;4.440;2023-06-10T08:49:09;39.60;59.10
21246;DHT22;10781;50.928;4.440;2023-06-10T08:51:35;39.80;57.80
21246;DHT22;10781;50.928;4.440;2023-06-10T08:54:05;39.60;56.00
21246;DHT22;10781;50.928;4.440;2023-06-10T08:56:39;40.20;54.80
21246;DHT22;10781;50.928;4.440;2023-06-10T08:59:05;39.70;55.20
21246;DHT22;10781;50.928;4.440;2023-06-10T09:01:31;39.60;54.90
21246;DHT22;10781;50.928;4.440;2023-06-10T09:03:59;40.40;53.60
21246;DHT22;10781;50.928;4.440;2023-06-10T09:06:25;39.60;53.20
21246;DHT22;10781;50.928;4.440;2023-06-10T09:08:50;39.30;54.50
21246;DHT22;10781;50.928;4.440;2023-06-10T09:11:16;40.40;50.40
21246;DHT22;10781;50.928;4.440;2023-06-10T09:13:42;40.70;50.00
21246;DHT22;10781;50.928;4.440;2023-06-10T09:16:08;40.80;50.40
21246;DHT22;10781;50.928;4.440;2023-06-10T09:18:34;41.10;47.70
21246;DHT22;10781;50.928;4.440;2023-06-10T09:21:00;40.70;49.20
21246;DHT22;10781;50.928;4.440;2023-06-10T09:23:26;40.00;46.40
21246;DHT22;10781;50.928;4.440;2023-06-10T09:25:58;39.40;47.70
21246;DHT22;10781;50.928;4.440;2023-06-10T09:28:24;39.00;49.40
21246;DHT22;10781;50.928;4.440;2023-06-10T09:31:02;39.00;51.00
21246;DHT22;10781;50.928;4.440;2023-06-10T09:33:28;40.40;48.80
21246;DHT22;10781;50.928;4.440;2023-06-10T09:35:54;41.00;47.10
21246;DHT22;10781;50.928;4.440;2023-06-10T09:38:22;42.00;45.20
21246;DHT22;10781;50.928;4.440;2023-06-10T09:40:52;42.60;44.90
21246;DHT22;10781;50.928;4.440;2023-06-10T09:43:18;44.50;43.20
21246;DHT22;10781;50.928;4.440;2023-06-10T09:45:44;43.80;42.30
21246;DHT22;10781;50.928;4.440;2023-06-10T09:48:12;43.80;40.80
21246;DHT22;10781;50.928;4.440;2023-06-10T09:50:45;43.30;39.80
21246;DHT22;10781;50.928;4.440;2023-06-10T09:53:11;42.60;41.60
21246;DHT22;10781;50.928;4.440;2023-06-10T09:55:38;42.40;40.70
21246;DHT22;10781;50.928;4.440;2023-06-10T09:58:04;42.20;40.20
21246;DHT22;10781;50.928;4.440;2023-06-10T10:00:32;41.00;40.80
21246;DHT22;10781;50.928;4.440;2023-06-10T10:02:58;40.30;43.00
21246;DHT22;10781;50.928;4.440;2023-06-10T10:05:24;40.80;41.10
21246;DHT22;10781;50.928;4.440;2023-06-10T10:07:50;42.60;41.50
21246;DHT22;10781;50.928;4.440;2023-06-10T10:10:19;41.60;42.00
21246;DHT22;10781;50.928;4.440;2023-06-10T10:12:47;41.50;43.40
21246;DHT22;10781;50.928;4.440;2023-06-10T10:15:16;41.80;42.00
21246;DHT22;10781;50.928;4.440;2023-06-10T10:17:57;40.70;41.20
21246;DHT22;10781;50.928;4.440;2023-06-10T10:20:27;40.70;43.10
21246;DHT22;10781;50.928;4.440;2023-06-10T10:22:56;41.40;41.80
21246;DHT22;10781;50.928;4.440;2023-06-10T10:25:38;42.20;39.90
21246;DHT22;10781;50.928;4.440;2023-06-10T10:28:11;42.00;40.00
21246;DHT22;10781;50.928;4.440;2023-06-10T10:31:02;42.00;39.20
21246;DHT22;10781;50.928;4.440;2023-06-10T10:33:40;40.60;40.70
21246;DHT22;10781;50.928;4.440;2023-06-10T10:36:07;41.70;40.80
21246;DHT22;10781;50.928;4.440;2023-06-10T10:38:33;41.80;40.20
21246;DHT22;10781;50.928;4.440;2023-06-10T10:41:00;43.10;40.60
21246;DHT22;10781;50.928;4.440;2023-06-10T10:43:30;44.80;38.10
21246;DHT22;10781;50.928;4.440;2023-06-10T10:45:59;41.70;37.20
21246;DHT22;10781;50.928;4.440;2023-06-10T10:48:26;42.50;38.80
21246;DHT22;10781;50.928;4.440;2023-06-10T10:50:58;43.10;38.00
21246;DHT22;10781;50.928;4.440;2023-06-10T10:53:24;42.70;37.20
21246;DHT22;10781;50.928;4.440;2023-06-10T10:56:16;42.40;36.70
21246;DHT22;10781;50.928;4.440;2023-06-10T10:59:04;42.50;36.40
21246;DHT22;10781;50.928;4.440;2023-06-10T11:01:43;41.80;37.10
21246;DHT22;10781;50.928;4.440;2023-06-10T11:04:12;42.60;37.90
21246;DHT22;10781;50.928;4.440;2023-06-10T11:06:38;43.40;37.20
21246;DHT22;10781;50.928;4.440;2023-06-10T11:09:26;43.10;37.70
21246;DHT22;10781;50.928;4.440;2023-06-10T11:11:52;43.30;35.30
21246;DHT22;10781;50.928;4.440;2023-06-10T11:14:29;44.00;35.20
21246;DHT22;10781;50.928;4.440;2023-06-10T11:16:59;43.40;35.40
21246;DHT22;10781;50.928;4.440;2023-06-10T11:19:35;42.70;35.90
21246;DHT22;10781;50.928;4.440;2023-06-10T11:22:05;41.90;35.80
21246;DHT22;10781;50.928;4.440;2023-06-10T11:24:30;40.50;36.40
21246;DHT22;10781;50.928;4.440;2023-06-10T11:27:15;39.40;37.40
21246;DHT22;10781;50.928;4.440;2023-06-10T11:32:30;41.50;37.10
21246;DHT22;10781;50.928;4.440;2023-06-10T11:35:02;40.40;36.50
21246;DHT22;10781;50.928;4.440;2023-06-10T11:37:28;40.80;36.70
21246;DHT22;10781;50.928;4.440;2023-06-10T11:39:55;40.60;36.60
21246;DHT22;10781;50.928;4.440;2023-06-10T11:42:22;41.20;36.80
21246;DHT22;10781;50.928;4.440;2023-06-10T11:44:54;41.90;36.80
21246;DHT22;10781;50.928;4.440;2023-06-10T11:47:20;42.50;35.60
21246;DHT22;10781;50.928;4.440;2023-06-10T11:49:49;41.60;35.90
21246;DHT22;10781;50.928;4.440;2023-06-10T11:52:30;42.20;35.20
21246;DHT22;10781;50.928;4.440;2023-06-10T11:55:03;42.00;37.10
21246;DHT22;10781;50.928;4.440;2023-06-10T11:57:34;42.30;36.50
21246;DHT22;10781;50.928;4.440;2023-06-10T12:00:07;41.30;35.60
21246;DHT22;10781;50.928;4.440;2023-06-10T12:02:33;41.20;35.50
21246;DHT22;10781;50.928;4.440;2023-06-10T12:05:19;40.80;36.00
21246;DHT22;10781;50.928;4.440;2023-06-10T12:07:45;40.80;36.10
21246;DHT22;10781;50.928;4.440;2023-06-10T12:10:10;40.80;35.70
21246;DHT22;10781;50.928;4.440;2023-06-10T12:12:36;41.40;35.40
21246;DHT22;10781;50.928;4.440;2023-06-10T12:15:02;41.70;35.40
21246;DHT22;10781;50.928;4.440;2023-06-10T12:19:57;44.00;34.30
21246;DHT22;10781;50.928;4.440;2023-06-10T12:22:23;44.00;34.30
21246;DHT22;10781;50.928;4.440;2023-06-10T12:25:01;44.30;33.70
21246;DHT22;10781;50.928;4.440;2023-06-10T12:27:28;43.60;34.00
21246;DHT22;10781;50.928;4.440;2023-06-10T12:29:55;43.60;34.00
21246;DHT22;10781;50.928;4.440;2023-06-10T12:32:21;43.00;33.90
21246;DHT22;10781;50.928;4.440;2023-06-10T12:35:02;41.80;33.90
21246;DHT22;10781;50.928;4.440;2023-06-10T12:37:29;41.20;35.50
21246;DHT22;10781;50.928;4.440;2023-06-10T12:39:55;40.90;34.20
21246;DHT22;10781;50.928;4.440;2023-06-10T12:42:25;40.70;35.00
21246;DHT22;10781;50.928;4.440;2023-06-10T12:44:53;41.30;34.90
21246;DHT22;10781;50.928;4.440;2023-06-10T12:47:20;41.80;33.90
21246;DHT22;10781;50.928;4.440;2023-06-10T12:49:45;40.50;35.50
21246;DHT22;10781;50.928;4.440;2023-06-10T12:52:11;39.30;35.60
21246;DHT22;10781;50.928;4.440;2023-06-10T12:54:37;39.40;35.80
21246;DHT22;10781;50.928;4.440;2023-06-10T12:57:03;40.00;35.60
21246;DHT22;10781;50.928;4.440;2023-06-10T12:59:29;40.80;34.60
21246;DHT22;10781;50.928;4.440;2023-06-10T13:01:55;41.00;35.00
21246;DHT22;10781;50.928;4.440;2023-06-10T13:04:21;41.90;33.60
21246;DHT22;10781;50.928;4.440;2023-06-10T13:06:47;41.40;33.30
21246;DHT22;10781;50.928;4.440;2023-06-10T13:09:14;41.00;33.50
21246;DHT22;10781;50.928;4.440;2023-06-10T13:11:41;40.70;33.90
21246;DHT22;10781;50.928;4.440;2023-06-10T13:14:08;40.40;34.50
21246;DHT22;10781;50.928;4.440;2023-06-10T13:16:34;39.60;34.40
21246;DHT22;10781;50.928;4.440;2023-06-10T13:18:59;40.70;35.30
21246;DHT22;10781;50.928;4.440;2023-06-10T13:21:27;40.60;34.60
21246;DHT22;10781;50.928;4.440;2023-06-10T13:23:52;40.40;34.70
21246;DHT22;10781;50.928;4.440;2023-06-10T13:26:18;40.50;34.80
21246;DHT22;10781;50.928;4.440;2023-06-10T13:28:44;40.00;34.70
21246;DHT22;10781;50.928;4.440;2023-06-10T13:31:10;40.50;35.10
21246;DHT22;10781;50.928;4.440;2023-06-10T13:33:36;41.10;33.70
21246;DHT22;10781;50.928;4.440;2023-06-10T13:36:02;41.90;33.20
21246;DHT22;10781;50.928;4.440;2023-06-10T13:38:28;42.80;33.30
21246;DHT22;10781;50.928;4.440;2023-06-10T13:40:53;42.70;32.70
21246;DHT22;10781;50.928;4.440;2023-06-10T13:43:19;42.20;34.00
21246;DHT22;10781;50.928;4.440;2023-06-10T13:45:44;41.50;33.60
21246;DHT22;10781;50.928;4.440;2023-06-10T13:48:10;41.80;34.10
21246;DHT22;10781;50.928;4.440;2023-06-10T13:50:37;42.10;34.20
21246;DHT22;10781;50.928;4.440;2023-06-10T13:53:03;40.50;34.50
21246;DHT22;10781;50.928;4.440;2023-06-10T13:55:28;40.70;35.50
21246;DHT22;10781;50.928;4.440;2023-06-10T13:57:54;40.10;34.50
21246;DHT22;10781;50.928;4.440;2023-06-10T14:00:20;40.30;35.30
21246;DHT22;10781;50.928;4.440;2023-06-10T14:02:45;41.80;34.80
21246;DHT22;10781;50.928;4.440;2023-06-10T14:05:12;41.20;33.60
21246;DHT22;10781;50.928;4.440;2023-06-10T14:07:37;40.50;34.40
21246;DHT22;10781;50.928;4.440;2023-06-10T14:10:03;40.30;34.50
21246;DHT22;10781;50.928;4.440;2023-06-10T14:12:29;38.40;35.60
21246;DHT22;10781;50.928;4.440;2023-06-10T14:14:55;38.40;36.80
21246;DHT22;10781;50.928;4.440;2023-06-10T14:17:20;39.90;38.00
21246;DHT22;10781;50.928;4.440;2023-06-10T14:19:47;41.00;34.80
21246;DHT22;10781;50.928;4.440;2023-06-10T14:22:13;40.70;36.00
21246;DHT22;10781;50.928;4.440;2023-06-10T14:24:39;41.40;33.80
21246;DHT22;10781;50.928;4.440;2023-06-10T14:27:05;42.60;32.50
21246;DHT22;10781;50.928;4.440;2023-06-10T14:29:31;41.80;32.30
21246;DHT22;10781;50.928;4.440;2023-06-10T14:31:59;41.50;33.20
21246;DHT22;10781;50.928;4.440;2023-06-10T14:34:25;39.90;33.60
21246;DHT22;10781;50.928;4.440;2023-06-10T14:36:54;38.90;36.00
21246;DHT22;10781;50.928;4.440;2023-06-10T14:39:20;39.60;35.30
21246;DHT22;10781;50.928;4.440;2023-06-10T14:41:46;40.30;34.30
21246;DHT22;10781;50.928;4.440;2023-06-10T14:44:11;40.60;35.30
21246;DHT22;10781;50.928;4.440;2023-06-10T14:46:37;39.80;34.30
21246;DHT22;10781;50.928;4.440;2023-06-10T14:49:02;39.00;35.20
21246;DHT22;10781;50.928;4.440;2023-06-10T14:51:28;39.40;35.90
21246;DHT22;10781;50.928;4.440;2023-06-10T14:53:54;39.30;35.70
21246;DHT22;10781;50.928;4.440;2023-06-10T14:56:19;40.30;36.60
21246;DHT22;10781;50.928;4.440;2023-06-10T14:58:45;39.90;35.80
21246;DHT22;10781;50.928;4.440;2023-06-10T15:01:11;40.10;35.00
21246;DHT22;10781;50.928;4.440;2023-06-10T15:03:36;39.90;35.00
21246;DHT22;10781;50.928;4.440;2023-06-10T15:06:02;40.50;36.60
21246;DHT22;10781;50.928;4.440;2023-06-10T15:08:28;39.90;35.50
21246;DHT22;10781;50.928;4.440;2023-06-10T15:10:54;39.10;34.80
21246;DHT22;10781;50.928;4.440;2023-06-10T15:13:20;39.40;35.80
21246;DHT22;10781;50.928;4.440;2023-06-10T15:15:45;39.80;34.50
21246;DHT22;10781;50.928;4.440;2023-06-10T15:18:11;39.40;34.70
21246;DHT22;10781;50.928;4.440;2023-06-10T15:20:37;38.60;35.10
21246;DHT22;10781;50.928;4.440;2023-06-10T15:23:02;39.00;35.60
21246;DHT22;10781;50.928;4.440;2023-06-10T15:25:28;39.60;33.90
21246;DHT22;10781;50.928;4.440;2023-06-10T15:27:53;38.90;35.20
21246;DHT22;10781;50.928;4.440;2023-06-10T15:30:19;38.30;35.40
21246;DHT22;10781;50.928;4.440;2023-06-10T15:32:45;39.20;36.40
21246;DHT22;10781;50.928;4.440;2023-06-10T15:35:10;38.70;35.00
21246;DHT22;10781;50.928;4.440;2023-06-10T15:37:37;38.40;34.80
21246;DHT22;10781;50.928;4.440;2023-06-10T15:40:03;38.50;35.20
21246;DHT22;10781;50.928;4.440;2023-06-10T15:42:28;38.00;36.10